»·PEaware :: AAL1097 KDFW-KSFO

AAL1097 :: KDFW-KSFO

FLIGHT INFORMATION

Flight Status: Arrived
Operator:
American Airlines
More flights by this operator :: More flights under this callsign
Pilot: Adam Asmar (5112)
Aircraft: BOEING 767-300
(B763)
More flights by this aircraft type
Origin: KDFW Dallas-Ft Worth Intl
United States
Destination: KSFO San Francisco Intl
United States
More flights between these airports :: More routes between these airports
Route: +HRPER3 HULZE FTI J58 MLF KATTS Q136 OAL INYOE DYAMD2
File this flight plan on PilotEdge
Remarks:
Altitude:
(Current/Filed)
36,000ft
Speed:
(Current/Filed)
460kts
Departed: 24-Apr-16 02:53 PM
Arrived: 24-Apr-16 06:14 PM
Distance/Time
Traveled:
1269nm/3:21
Distance/Time
To Go:
Arrived

Flight Plot

Page will automatically refresh every two minutes.


Map Options




Map Legend


Flown Route
Filed Route
Departure Airport
Arrival Airport
Navaid (VOR, NDB)
Fix

Horizontal Profiles

Position Reports

Time Latitude Longitude Heading Altitude Ground
Speed
24-Apr-16 14:06 32.900035 -97.045816 139 617ft 0kts
24-Apr-16 14:07 32.900035 -97.045816 139 617ft 0kts
24-Apr-16 14:08 32.900035 -97.045816 139 617ft 0kts
24-Apr-16 14:09 32.900035 -97.045816 139 617ft 0kts
24-Apr-16 14:10 32.900035 -97.045816 139 617ft 0kts
24-Apr-16 14:11 32.900035 -97.045816 139 617ft 0kts
24-Apr-16 14:12 32.900035 -97.045816 139 617ft 0kts
24-Apr-16 14:13 32.900035 -97.045816 139 617ft 0kts
24-Apr-16 14:14 32.900035 -97.045816 139 617ft 0kts
24-Apr-16 14:15 32.900035 -97.045816 139 617ft 0kts
24-Apr-16 14:16 32.900035 -97.045816 139 617ft 0kts
24-Apr-16 14:17 32.900035 -97.045816 139 617ft 0kts
24-Apr-16 14:18 32.900035 -97.045816 139 617ft 0kts
24-Apr-16 14:19 32.900035 -97.045816 139 617ft 0kts
24-Apr-16 14:20 32.900035 -97.045816 139 617ft 0kts
24-Apr-16 14:21 32.900035 -97.045816 139 617ft 0kts
24-Apr-16 14:22 32.900035 -97.045816 139 617ft 0kts
24-Apr-16 14:23 32.900035 -97.045816 139 617ft 0kts
24-Apr-16 14:24 32.900035 -97.045816 139 617ft 0kts
24-Apr-16 14:25 32.900035 -97.045816 139 617ft 0kts
24-Apr-16 14:26 32.900035 -97.045816 139 617ft 0kts
24-Apr-16 14:27 32.900035 -97.045816 139 617ft 0kts
24-Apr-16 14:28 32.900035 -97.045816 139 617ft 0kts
24-Apr-16 14:29 32.900035 -97.045816 139 617ft 0kts
24-Apr-16 14:30 32.900035 -97.045816 139 617ft 0kts
24-Apr-16 14:31 32.900035 -97.045816 139 617ft 0kts
24-Apr-16 14:32 32.900035 -97.045816 139 617ft 0kts
24-Apr-16 14:33 32.900471 -97.046206 166 617ft 1kts
24-Apr-16 14:34 32.900978 -97.045931 261 617ft 1kts
24-Apr-16 14:35 32.900983 -97.045826 268 617ft 0kts
24-Apr-16 14:36 32.900983 -97.045826 268 617ft 0kts
24-Apr-16 14:37 32.901456 -97.047528 322 617ft 13kts
24-Apr-16 14:38 32.906158 -97.047672 0 617ft 18kts
24-Apr-16 14:39 32.909113 -97.044870 90 617ft 22kts
24-Apr-16 14:40 32.909085 -97.036971 90 617ft 24kts
24-Apr-16 14:41 32.910463 -97.033632 343 617ft 17kts
24-Apr-16 14:42 32.915627 -97.033204 78 617ft 13kts
24-Apr-16 14:43 32.914320 -97.029878 180 617ft 24kts
24-Apr-16 14:44 32.874856 -97.030378 181 1852ft 205kts
24-Apr-16 14:45 32.815989 -97.056825 206 4917ft 244kts
24-Apr-16 14:46 32.771146 -97.111920 255 8428ft 261kts
24-Apr-16 14:47 32.769295 -97.198775 271 10825ft 314kts
24-Apr-16 14:48 32.787304 -97.305339 283 13882ft 350kts
24-Apr-16 14:49 32.813229 -97.413679 283 17060ft 365kts
24-Apr-16 14:50 32.840618 -97.528144 283 19969ft 381kts
24-Apr-16 14:51 32.868636 -97.645746 284 22517ft 395kts
24-Apr-16 14:52 32.901735 -97.770267 289 24782ft 411kts
24-Apr-16 14:53 32.942628 -97.895654 289 26860ft 424kts
24-Apr-16 14:54 32.984751 -98.024865 290 29027ft 429kts
24-Apr-16 14:55 33.027210 -98.154782 290 30950ft 435kts
24-Apr-16 14:56 33.071851 -98.291537 291 32526ft 444kts
24-Apr-16 14:57 33.116040 -98.427718 291 34350ft 439kts
24-Apr-16 14:58 33.159618 -98.562667 291 35810ft 434kts
24-Apr-16 14:59 33.202906 -98.697302 291 35833ft 434kts
24-Apr-16 15:00 33.246018 -98.831989 291 35831ft 434kts
24-Apr-16 15:01 33.288927 -98.966628 291 35830ft 434kts
24-Apr-16 15:02 33.331600 -99.101117 290 35829ft 434kts
24-Apr-16 15:03 33.374622 -99.235665 290 35839ft 436kts
24-Apr-16 15:04 33.417484 -99.371724 290 35843ft 437kts
24-Apr-16 15:05 33.460229 -99.508213 290 35837ft 439kts
24-Apr-16 15:06 33.499222 -99.647094 288 35820ft 441kts
24-Apr-16 15:07 33.537905 -99.786659 288 35799ft 443kts
24-Apr-16 15:08 33.576516 -99.926646 288 35773ft 446kts
24-Apr-16 15:09 33.615253 -100.067793 288 35760ft 446kts
24-Apr-16 15:10 33.654142 -100.207851 290 35763ft 446kts
24-Apr-16 15:11 33.710043 -100.341163 297 35765ft 446kts
24-Apr-16 15:12 33.766698 -100.471836 297 35763ft 437kts
24-Apr-16 15:13 33.822183 -100.600127 297 35761ft 430kts
24-Apr-16 15:14 33.877393 -100.728234 297 35761ft 431kts
24-Apr-16 15:15 33.932338 -100.856193 297 35766ft 431kts
24-Apr-16 15:16 33.987434 -100.984983 297 35789ft 432kts
24-Apr-16 15:17 34.042232 -101.113516 297 35806ft 433kts
24-Apr-16 15:18 34.097528 -101.242420 296 35809ft 433kts
24-Apr-16 15:19 34.143183 -101.350169 296 35808ft 433kts
24-Apr-16 15:20 34.198415 -101.481127 296 35807ft 433kts
24-Apr-16 15:21 34.229252 -101.554474 296 35806ft 433kts
24-Apr-16 15:22 34.283596 -101.684124 296 35804ft 433kts
24-Apr-16 15:23 34.337996 -101.814402 296 35803ft 433kts
24-Apr-16 15:24 34.392017 -101.944269 296 35801ft 433kts
24-Apr-16 15:25 34.445927 -102.074371 296 35806ft 431kts
24-Apr-16 15:26 34.499499 -102.202923 296 35798ft 432kts
24-Apr-16 15:27 34.552638 -102.331830 296 35798ft 434kts
24-Apr-16 15:28 34.606410 -102.463063 296 35801ft 430kts
24-Apr-16 15:29 34.659122 -102.592226 295 35805ft 425kts
24-Apr-16 15:30 34.711557 -102.721227 295 35801ft 425kts
24-Apr-16 15:31 34.763797 -102.850276 295 35812ft 425kts
24-Apr-16 15:32 34.815814 -102.979251 295 35829ft 424kts
24-Apr-16 15:33 34.867371 -103.107577 294 35831ft 424kts
24-Apr-16 15:34 34.919522 -103.236452 294 35827ft 425kts
24-Apr-16 15:35 34.971279 -103.366095 294 35800ft 426kts
24-Apr-16 15:36 35.022945 -103.496191 294 35789ft 426kts
24-Apr-16 15:37 35.074409 -103.626317 294 35789ft 426kts
24-Apr-16 15:38 35.125778 -103.756716 294 35786ft 426kts
24-Apr-16 15:39 35.177014 -103.887297 294 35784ft 426kts
24-Apr-16 15:40 35.228031 -104.017846 294 35782ft 426kts
24-Apr-16 15:41 35.278974 -104.148013 294 35793ft 426kts
24-Apr-16 15:42 35.330029 -104.278824 294 35825ft 425kts
24-Apr-16 15:43 35.380638 -104.409799 294 35894ft 424kts
24-Apr-16 15:44 35.430843 -104.540343 294 35897ft 424kts
24-Apr-16 15:45 35.481526 -104.672680 294 35895ft 424kts
24-Apr-16 15:46 35.528387 -104.795522 294 35893ft 424kts
24-Apr-16 15:47 35.577880 -104.925788 294 35896ft 424kts
24-Apr-16 15:48 35.629958 -105.063433 294 35894ft 424kts
24-Apr-16 15:49 35.680022 -105.193692 293 35904ft 427kts
24-Apr-16 15:50 35.731131 -105.326491 292 35901ft 430kts
24-Apr-16 15:51 35.781956 -105.459527 292 35899ft 430kts
24-Apr-16 15:52 35.824381 -105.571024 292 35898ft 435kts
24-Apr-16 15:53 35.873019 -105.699306 292 35915ft 432kts
24-Apr-16 15:54 35.923345 -105.832603 292 35953ft 425kts
24-Apr-16 15:55 35.973049 -105.964807 292 35979ft 426kts
24-Apr-16 15:56 36.022943 -106.098076 292 35985ft 431kts
24-Apr-16 15:57 36.073041 -106.230925 292 35993ft 429kts
24-Apr-16 15:58 36.123175 -106.365750 291 35993ft 433kts
24-Apr-16 15:59 36.167515 -106.485709 291 35991ft 432kts
24-Apr-16 16:00 36.167515 -106.485709 291 35991ft 432kts
24-Apr-16 16:01 36.191907 -106.552437 292 35984ft 429kts
24-Apr-16 16:02 36.216828 -106.619950 292 35989ft 428kts
24-Apr-16 16:03 36.267084 -106.756877 291 35988ft 430kts
24-Apr-16 16:04 36.316445 -106.892123 291 35985ft 428kts
24-Apr-16 16:05 36.364889 -107.025469 291 35980ft 421kts
24-Apr-16 16:06 36.412892 -107.157294 291 35976ft 420kts
24-Apr-16 16:07 36.460817 -107.289555 290 35958ft 419kts
24-Apr-16 16:08 36.508268 -107.421719 290 35957ft 419kts
24-Apr-16 16:09 36.555749 -107.554614 290 35953ft 419kts
24-Apr-16 16:10 36.602553 -107.686204 290 35946ft 419kts
24-Apr-16 16:11 36.649870 -107.819810 290 35941ft 419kts
24-Apr-16 16:12 36.696805 -107.952923 290 35940ft 419kts
24-Apr-16 16:13 36.743456 -108.085807 290 35937ft 419kts
24-Apr-16 16:14 36.790749 -108.217748 290 35948ft 419kts
24-Apr-16 16:15 36.837781 -108.350558 290 35947ft 419kts
24-Apr-16 16:16 36.884619 -108.483678 290 35945ft 419kts
24-Apr-16 16:17 36.931370 -108.617172 290 35950ft 419kts
24-Apr-16 16:18 36.977938 -108.750735 290 35960ft 418kts
24-Apr-16 16:19 37.024193 -108.883992 290 35958ft 418kts
24-Apr-16 16:20 37.070479 -109.017932 290 35961ft 418kts
24-Apr-16 16:21 37.116197 -109.149986 290 35999ft 417kts
24-Apr-16 16:22 37.162380 -109.283845 290 36012ft 417kts
24-Apr-16 16:23 37.207949 -109.417381 290 36010ft 417kts
24-Apr-16 16:24 37.253506 -109.551586 290 36008ft 417kts
24-Apr-16 16:25 37.298773 -109.685554 290 36007ft 417kts
24-Apr-16 16:26 37.343898 -109.819711 290 36005ft 417kts
24-Apr-16 16:27 37.388771 -109.953721 289 36003ft 417kts
24-Apr-16 16:28 37.433544 -110.088012 289 36001ft 415kts
24-Apr-16 16:29 37.478274 -110.221164 287 36011ft 415kts
24-Apr-16 16:30 37.522839 -110.355788 285 35971ft 419kts
24-Apr-16 16:31 37.567316 -110.491116 284 35899ft 422kts
24-Apr-16 16:32 37.612025 -110.627793 284 35875ft 422kts
24-Apr-16 16:33 37.656734 -110.765098 284 35873ft 422kts
24-Apr-16 16:34 37.693829 -110.879523 284 35872ft 422kts
24-Apr-16 16:35 37.745602 -111.039992 284 35871ft 422kts
24-Apr-16 16:36 37.789710 -111.176097 284 35901ft 421kts
24-Apr-16 16:37 37.833621 -111.312845 284 35967ft 420kts
24-Apr-16 16:38 37.869884 -111.426797 284 35999ft 420kts
24-Apr-16 16:39 37.913306 -111.563930 284 35998ft 419kts
24-Apr-16 16:40 37.956576 -111.701253 284 35996ft 419kts
24-Apr-16 16:41 37.999385 -111.837777 284 35995ft 419kts
24-Apr-16 16:42 38.042300 -111.975306 284 35993ft 419kts
24-Apr-16 16:43 38.084961 -112.112658 283 35998ft 419kts
24-Apr-16 16:44 38.127826 -112.249508 283 36005ft 419kts
24-Apr-16 16:45 38.169657 -112.385331 283 35994ft 418kts
24-Apr-16 16:46 38.212658 -112.525850 283 35946ft 418kts
24-Apr-16 16:47 38.254602 -112.663641 283 35909ft 417kts
24-Apr-16 16:48 38.296410 -112.801674 283 35907ft 417kts
24-Apr-16 16:49 38.338137 -112.940134 283 35905ft 417kts
24-Apr-16 16:50 38.358942 -113.081927 267 35909ft 402kts
24-Apr-16 16:51 38.361330 -113.223650 265 35916ft 401kts
24-Apr-16 16:52 38.362040 -113.365372 265 35914ft 400kts
24-Apr-16 16:53 38.362322 -113.507337 265 35886ft 401kts
24-Apr-16 16:54 38.362393 -113.650510 265 35875ft 411kts
24-Apr-16 16:55 38.362289 -113.798013 264 35874ft 421kts
24-Apr-16 16:56 38.362007 -113.946944 264 35871ft 420kts
24-Apr-16 16:57 38.361533 -114.095475 264 35891ft 418kts
24-Apr-16 16:58 38.361404 -114.241506 264 35945ft 414kts
24-Apr-16 16:59 38.360649 -114.387417 264 35950ft 413kts
24-Apr-16 17:00 38.359643 -114.533508 264 35949ft 413kts
24-Apr-16 17:01 38.358444 -114.680076 264 35947ft 413kts
24-Apr-16 17:02 38.357069 -114.825914 264 35945ft 413kts
24-Apr-16 17:03 38.355515 -114.971581 264 35944ft 413kts
24-Apr-16 17:04 38.353798 -115.118120 264 35949ft 413kts
24-Apr-16 17:05 38.352394 -115.264092 263 35951ft 413kts
24-Apr-16 17:06 38.350349 -115.410231 263 35950ft 413kts
24-Apr-16 17:07 38.348071 -115.556324 263 35948ft 413kts
24-Apr-16 17:08 38.345604 -115.702534 263 35947ft 413kts
24-Apr-16 17:09 38.342956 -115.848683 263 35950ft 413kts
24-Apr-16 17:10 38.340037 -115.999268 263 35952ft 413kts
24-Apr-16 17:11 38.337225 -116.144943 263 36460ft 415kts
24-Apr-16 17:12 38.334385 -116.291428 263 37752ft 413kts
24-Apr-16 17:13 38.310835 -116.432039 251 38604ft 407kts
24-Apr-16 17:14 38.279497 -116.572600 252 38974ft 418kts
24-Apr-16 17:15 38.246865 -116.716485 252 39421ft 425kts
24-Apr-16 17:16 38.213889 -116.860765 252 39949ft 424kts
24-Apr-16 17:17 38.186413 -116.980265 252 39951ft 425kts
24-Apr-16 17:18 38.153284 -117.123789 252 39956ft 424kts
24-Apr-16 17:19 38.120449 -117.267122 252 39957ft 424kts
24-Apr-16 17:20 38.087294 -117.410593 252 39955ft 424kts
24-Apr-16 17:21 38.053947 -117.553862 252 39954ft 424kts
24-Apr-16 17:22 38.020293 -117.697542 252 39946ft 425kts
24-Apr-16 17:23 37.995684 -117.843809 260 39926ft 428kts
24-Apr-16 17:24 37.979636 -117.993552 260 39897ft 429kts
24-Apr-16 17:25 37.963983 -118.141190 260 39898ft 429kts
24-Apr-16 17:26 37.948267 -118.289850 260 39906ft 428kts
24-Apr-16 17:27 37.932093 -118.437672 260 39935ft 426kts
24-Apr-16 17:28 37.916410 -118.579039 260 39986ft 422kts
24-Apr-16 17:29 37.899334 -118.731159 260 39988ft 422kts
24-Apr-16 17:30 37.883308 -118.872323 260 39987ft 422kts
24-Apr-16 17:31 37.867308 -119.011742 260 39986ft 422kts
24-Apr-16 17:32 37.851454 -119.150529 259 39994ft 422kts
24-Apr-16 17:33 37.834852 -119.294923 259 39883ft 420kts
24-Apr-16 17:34 37.818529 -119.432797 260 38564ft 389kts
24-Apr-16 17:35 37.804497 -119.550115 261 37556ft 386kts
24-Apr-16 17:36 37.788694 -119.681187 261 36461ft 388kts
24-Apr-16 17:37 37.772765 -119.811968 261 35321ft 390kts
24-Apr-16 17:38 37.756720 -119.942462 261 34156ft 388kts
24-Apr-16 17:39 37.740600 -120.072339 261 32987ft 390kts
24-Apr-16 17:40 37.725163 -120.198914 261 31872ft 393kts
24-Apr-16 17:41 37.708392 -120.332475 261 30663ft 397kts
24-Apr-16 17:42 37.692008 -120.466482 262 29255ft 399kts
24-Apr-16 17:43 37.676090 -120.602133 262 26619ft 398kts
24-Apr-16 17:44 37.662231 -120.719170 262 24537ft 392kts
24-Apr-16 17:45 37.646620 -120.849061 262 22650ft 375kts
24-Apr-16 17:46 37.631281 -120.974224 261 20655ft 362kts
24-Apr-16 17:47 37.614613 -121.095809 256 19448ft 354kts
24-Apr-16 17:48 37.595465 -121.210877 260 20962ft 365kts
24-Apr-16 17:49 37.584066 -121.334899 262 19931ft 343kts
24-Apr-16 17:50 37.571698 -121.445444 262 17192ft 320kts
24-Apr-16 17:51 37.559371 -121.551283 263 14140ft 321kts
24-Apr-16 17:52 37.544452 -121.650221 256 11073ft 273kts
24-Apr-16 17:53 37.524128 -121.736044 255 9498ft 261kts
24-Apr-16 17:54 37.504112 -121.819526 256 7501ft 239kts
24-Apr-16 17:55 37.492301 -121.895572 275 6714ft 217kts
24-Apr-16 17:56 37.496113 -121.968211 275 5868ft 212kts
24-Apr-16 17:57 37.500182 -122.040447 275 4517ft 206kts
24-Apr-16 17:58 37.508242 -122.106333 298 3359ft 187kts
24-Apr-16 17:59 37.530968 -122.160518 296 3145ft 160kts
24-Apr-16 18:00 37.549541 -122.204926 295 2725ft 132kts
24-Apr-16 18:01 37.565499 -122.242906 296 2056ft 129kts
24-Apr-16 18:02 37.581895 -122.281860 293 1345ft 125kts
24-Apr-16 18:03 37.597632 -122.319303 293 680ft 115kts
24-Apr-16 18:04 37.612206 -122.354034 292 119ft 112kts
24-Apr-16 18:05 37.620668 -122.374448 282 22ft 0kts

Navigation Log

Ident Type
1. KDFW Airport
2. FTI Navaid
3. ESPAN Fix
4. RGINA Fix
5. RSK Navaid
6. MLF Navaid
7. KATTS Fix
8. RUMPS Fix
9. OAL Navaid
10. INYOE Fix
11. KSFO Airport